Time;durP1;ratioP1;P1;durP2;ratioP2;P2;SDS_P1;SDS_P2;PMS_P1;PMS_P2;Temp;Humidity;BMP_temperature;BMP_pressure;BME280_temperature;BME280_humidity;BME280_pressure;Samples;Min_cycle;Max_cycle;Signal;HPM_P1;HPM_P2
2023/05/13 00:00:32;;;;;;;19.87;19.03;;;21.20;92.90;;;;;;5053579;28;20449;-62
2023/05/13 00:02:59;;;;;;;19.80;19.00;;;21.20;92.80;;;;;;5053462;28;20872;-62
2023/05/13 00:05:27;;;;;;;19.23;18.43;;;21.20;92.80;;;;;;5053609;28;20549;-62
2023/05/13 00:07:54;;;;;;;19.73;18.83;;;21.20;92.70;;;;;;5053285;28;20501;-61
2023/05/13 00:10:21;;;;;;;18.50;17.80;;;21.20;92.60;;;;;;5053455;28;20849;-61
2023/05/13 00:12:48;;;;;;;19.50;18.70;;;21.20;92.70;;;;;;5053307;28;20476;-61
2023/05/13 00:15:15;;;;;;;19.10;18.30;;;21.20;92.80;;;;;;5053296;28;20483;-61
2023/05/13 00:17:42;;;;;;;18.90;18.10;;;21.10;92.80;;;;;;5053326;28;20486;-62
2023/05/13 00:20:09;;;;;;;19.00;18.30;;;21.10;93.00;;;;;;5053078;28;20511;-61
2023/05/13 00:22:37;;;;;;;18.93;18.10;;;21.10;92.60;;;;;;5052632;28;20532;-61
2023/05/13 00:25:05;;;;;;;19.33;18.53;;;21.10;92.40;;;;;;5052690;28;20531;-62
2023/05/13 00:27:32;;;;;;;18.90;18.20;;;21.10;92.20;;;;;;5053158;28;20487;-62
2023/05/13 00:29:59;;;;;;;18.60;17.90;;;21.10;92.10;;;;;;5052815;28;20955;-62
2023/05/13 00:32:27;;;;;;;20.43;19.57;;;21.10;92.00;;;;;;5054497;28;20496;-63
2023/05/13 00:34:54;;;;;;;19.20;18.40;;;21.10;92.10;;;;;;5054009;28;20486;-63
2023/05/13 00:37:21;;;;;;;19.33;18.53;;;21.10;92.20;;;;;;5052921;28;20999;-62
2023/05/13 00:39:49;;;;;;;18.90;17.90;;;21.10;92.50;;;;;;5052870;28;20503;-63
2023/05/13 00:42:16;;;;;;;19.40;18.60;;;21.10;92.70;;;;;;5052821;28;20970;-62
2023/05/13 00:44:43;;;;;;;20.30;19.40;;;21.10;92.70;;;;;;5052493;28;20484;-62
2023/05/13 00:47:11;;;;;;;19.60;18.80;;;21.10;93.00;;;;;;5052768;28;20480;-62
2023/05/13 00:49:38;;;;;;;18.90;18.20;;;21.10;93.00;;;;;;5052650;28;20842;-62
2023/05/13 00:52:06;;;;;;;19.10;18.40;;;21.10;93.10;;;;;;5052611;28;20750;-61
2023/05/13 00:54:33;;;;;;;19.43;18.53;;;21.10;93.10;;;;;;5052499;28;20535;-62
2023/05/13 00:57:01;;;;;;;18.80;18.10;;;21.10;93.10;;;;;;5052680;28;20531;-61
2023/05/13 00:59:30;;;;;;;19.53;18.73;;;21.10;93.10;;;;;;5052444;28;20500;-62
2023/05/13 01:02:09;;;;;;;19.53;18.73;;;21.00;93.00;;;;;;5052438;28;20472;-61
2023/05/13 01:04:42;;;;;;;20.03;19.23;;;21.10;93.00;;;;;;5052101;28;20480;-62
2023/05/13 01:07:18;;;;;;;20.43;19.53;;;21.10;93.00;;;;;;5052469;28;20468;-61
2023/05/13 01:09:55;;;;;;;20.70;19.80;;;21.10;93.10;;;;;;5052359;28;20499;-60
2023/05/13 01:12:32;;;;;;;19.33;18.43;;;21.00;93.10;;;;;;5052001;28;20481;-62
2023/05/13 01:15:05;;;;;;;18.13;17.43;;;21.00;93.10;;;;;;5052199;28;20538;-61
2023/05/13 01:17:35;;;;;;;19.43;18.63;;;21.10;93.10;;;;;;5052343;28;20488;-62
2023/05/13 01:20:04;;;;;;;20.00;19.13;;;21.10;93.10;;;;;;5051993;28;20576;-62
2023/05/13 01:22:32;;;;;;;19.30;18.50;;;21.00;93.10;;;;;;5051976;28;20441;-62
2023/05/13 01:24:59;;;;;;;20.33;19.30;;;21.00;93.10;;;;;;5052010;28;20534;-62
2023/05/13 01:27:26;;;;;;;19.70;18.80;;;21.00;93.20;;;;;;5052027;28;20475;-62
2023/05/13 01:29:55;;;;;;;19.53;18.73;;;21.00;93.30;;;;;;5051941;28;20881;-61
2023/05/13 01:32:23;;;;;;;20.27;19.47;;;21.00;93.10;;;;;;5051627;28;20527;-62
2023/05/13 01:34:51;;;;;;;19.30;18.50;;;21.00;93.30;;;;;;5051797;28;20487;-62
2023/05/13 01:37:18;;;;;;;19.40;18.60;;;21.00;93.30;;;;;;5051477;28;20528;-62
2023/05/13 01:39:47;;;;;;;19.97;19.07;;;21.00;93.20;;;;;;5051746;28;20468;-62
2023/05/13 01:42:14;;;;;;;20.10;19.20;;;21.00;93.20;;;;;;5051854;28;20476;-62
2023/05/13 01:44:41;;;;;;;18.90;18.20;;;21.00;93.30;;;;;;5051571;28;20479;-63
2023/05/13 01:47:08;;;;;;;19.63;18.83;;;21.00;93.30;;;;;;5051669;28;20961;-62
2023/05/13 01:49:35;;;;;;;19.10;18.30;;;21.00;93.30;;;;;;5051618;28;20499;-62
2023/05/13 01:52:03;;;;;;;18.57;17.87;;;21.00;93.40;;;;;;5051544;28;20559;-62
2023/05/13 01:54:30;;;;;;;18.70;17.97;;;21.00;93.30;;;;;;5051365;28;20510;-62
2023/05/13 01:56:58;;;;;;;20.00;18.90;;;21.00;93.30;;;;;;5051323;28;21001;-61
2023/05/13 01:59:25;;;;;;;18.80;18.03;;;21.00;93.30;;;;;;5050240;28;20464;-62
2023/05/13 02:01:52;;;;;;;18.50;17.70;;;20.90;93.30;;;;;;5050468;28;20484;-61
2023/05/13 02:04:18;;;;;;;19.70;18.90;;;20.90;93.30;;;;;;5051324;28;20531;-62
2023/05/13 02:06:45;;;;;;;20.17;19.30;;;20.90;93.30;;;;;;5051184;28;20444;-62
2023/05/13 02:09:12;;;;;;;19.37;18.67;;;20.90;93.30;;;;;;5051089;28;20899;-62
2023/05/13 02:11:39;;;;;;;19.10;18.27;;;20.90;93.30;;;;;;5051301;28;20484;-62
2023/05/13 02:14:07;;;;;;;20.13;19.23;;;20.90;93.10;;;;;;5051336;28;20483;-62
2023/05/13 02:16:35;;;;;;;19.83;19.03;;;20.90;93.10;;;;;;5051358;28;20483;-62
2023/05/13 02:19:01;;;;;;;19.83;19.03;;;20.90;93.20;;;;;;5051171;28;20484;-62
2023/05/13 02:21:28;;;;;;;19.87;19.00;;;20.90;93.10;;;;;;5051510;28;20440;-62
2023/05/13 02:23:55;;;;;;;19.57;18.77;;;20.90;93.00;;;;;;5051125;28;20440;-62
2023/05/13 02:26:22;;;;;;;19.73;18.93;;;20.90;93.10;;;;;;5051248;28;20467;-62
2023/05/13 02:28:49;;;;;;;19.73;18.83;;;20.90;93.00;;;;;;5051233;28;20503;-61
2023/05/13 02:31:17;;;;;;;19.40;18.60;;;20.90;92.90;;;;;;5051061;28;20563;-62
2023/05/13 02:33:44;;;;;;;20.33;19.23;;;20.90;93.10;;;;;;5051008;28;20480;-62
2023/05/13 02:36:11;;;;;;;18.70;18.00;;;20.90;93.00;;;;;;5051229;28;20480;-62
2023/05/13 02:38:38;;;;;;;20.50;19.50;;;20.90;93.10;;;;;;5051139;28;20530;-62
2023/05/13 02:41:05;;;;;;;19.50;18.70;;;20.80;93.00;;;;;;5051095;28;20956;-62
2023/05/13 02:43:32;;;;;;;20.43;19.63;;;20.90;93.00;;;;;;5050134;28;20926;-62
2023/05/13 02:45:59;;;;;;;19.57;18.77;;;20.80;93.10;;;;;;5041249;28;20451;-62
2023/05/13 02:48:28;;;;;;;19.37;18.67;;;20.90;93.10;;;;;;5049834;28;20503;-61
2023/05/13 02:50:54;;;;;;;18.97;18.10;;;20.80;93.20;;;;;;5054799;28;20484;-62
2023/05/13 02:53:22;;;;;;;19.20;18.50;;;20.90;93.00;;;;;;5054345;28;20483;-62
2023/05/13 02:55:49;;;;;;;19.70;18.90;;;20.80;92.80;;;;;;5054706;28;20514;-61
2023/05/13 02:58:16;;;;;;;20.20;19.40;;;20.80;92.80;;;;;;5054725;28;20489;-62
2023/05/13 03:00:43;;;;;;;19.73;18.93;;;20.80;92.80;;;;;;5054376;28;20472;-61
2023/05/13 03:03:10;;;;;;;19.63;18.80;;;20.80;92.90;;;;;;5054085;28;20476;-61
2023/05/13 03:05:38;;;;;;;19.73;18.93;;;20.80;92.90;;;;;;5054684;28;20959;-61
2023/05/13 03:08:05;;;;;;;18.87;18.17;;;20.80;92.90;;;;;;5054533;28;20487;-61
2023/05/13 03:10:32;;;;;;;20.37;19.57;;;20.80;93.00;;;;;;5054250;28;20507;-61
2023/05/13 03:12:59;;;;;;;20.40;19.50;;;20.80;93.00;;;;;;5054374;28;20574;-62
2023/05/13 03:15:26;;;;;;;19.90;19.10;;;20.80;93.10;;;;;;5054432;28;20476;-62
2023/05/13 03:17:52;;;;;;;20.77;19.87;;;20.80;93.00;;;;;;5054521;28;20480;-61
2023/05/13 03:20:19;;;;;;;20.27;19.37;;;20.80;93.00;;;;;;5055848;28;20494;-63
2023/05/13 03:22:48;;;;;;;20.50;19.60;;;20.80;93.00;;;;;;5055472;28;20487;-62
2023/05/13 03:25:14;;;;;;;21.17;20.00;;;20.80;93.00;;;;;;5054344;28;20479;-62
2023/05/13 03:27:41;;;;;;;20.50;19.50;;;20.80;92.90;;;;;;5054324;28;20480;-62
2023/05/13 03:30:09;;;;;;;19.67;18.87;;;20.80;92.90;;;;;;5054135;28;20521;-60
2023/05/13 03:32:36;;;;;;;19.57;18.83;;;20.80;93.00;;;;;;5054036;28;20591;-61
2023/05/13 03:35:03;;;;;;;19.17;18.47;;;20.80;93.00;;;;;;5054084;28;20486;-61
2023/05/13 03:37:30;;;;;;;20.50;19.60;;;20.80;93.00;;;;;;5054085;28;20483;-61
2023/05/13 03:39:58;;;;;;;21.63;20.63;;;20.80;92.80;;;;;;5053981;28;20495;-61
2023/05/13 03:42:25;;;;;;;19.27;18.27;;;20.80;92.70;;;;;;5053892;28;20523;-62
2023/05/13 03:44:52;;;;;;;19.80;18.80;;;20.80;93.00;;;;;;5053863;28;20571;-62
2023/05/13 03:47:19;;;;;;;20.20;19.30;;;20.70;92.90;;;;;;5053895;28;20480;-61
2023/05/13 03:49:46;;;;;;;19.93;19.17;;;20.70;92.80;;;;;;5053798;28;20981;-62
2023/05/13 03:52:13;;;;;;;20.67;19.77;;;20.80;92.80;;;;;;5053695;28;20484;-61
2023/05/13 03:54:40;;;;;;;19.90;19.10;;;20.70;92.70;;;;;;5053590;28;20505;-63
2023/05/13 03:57:09;;;;;;;19.93;19.17;;;20.70;92.80;;;;;;5053769;28;20475;-61
2023/05/13 03:59:35;;;;;;;21.47;20.13;;;20.70;92.70;;;;;;5053154;28;20471;-63
2023/05/13 04:02:02;;;;;;;20.93;20.00;;;20.70;92.70;;;;;;5053673;28;20487;-61
2023/05/13 04:04:29;;;;;;;20.80;19.90;;;20.60;92.60;;;;;;5053411;28;20444;-62
2023/05/13 04:06:56;;;;;;;21.27;20.37;;;20.60;92.40;;;;;;5053589;28;20479;-62
2023/05/13 04:09:23;;;;;;;23.00;21.90;;;20.60;92.10;;;;;;5053330;28;20495;-62
2023/05/13 04:11:50;;;;;;;23.30;22.30;;;20.50;91.30;;;;;;5053405;28;20512;-62
2023/05/13 04:14:18;;;;;;;23.10;21.80;;;20.40;90.80;;;;;;5052782;28;20476;-62
2023/05/13 04:16:45;;;;;;;23.47;22.03;;;20.30;90.60;;;;;;5051929;28;20479;-62
2023/05/13 04:19:12;;;;;;;23.80;22.40;;;20.20;90.50;;;;;;5053594;28;20568;-61
2023/05/13 04:21:39;;;;;;;21.77;20.77;;;20.30;90.90;;;;;;5053268;28;20523;-62
2023/05/13 04:24:06;;;;;;;21.80;20.80;;;20.30;90.60;;;;;;5052603;28;20486;-62
2023/05/13 04:26:33;;;;;;;22.20;21.20;;;20.30;90.50;;;;;;5052942;28;20456;-62
2023/05/13 04:29:00;;;;;;;25.87;24.47;;;20.40;90.40;;;;;;5053101;28;20496;-61
2023/05/13 04:31:28;;;;;;;24.57;23.47;;;20.30;91.40;;;;;;5053385;28;20487;-62
2023/05/13 04:33:55;;;;;;;25.33;24.13;;;20.40;90.60;;;;;;5053109;28;20475;-62
2023/05/13 04:36:22;;;;;;;24.97;23.87;;;20.20;90.00;;;;;;5052937;28;20479;-62
2023/05/13 04:38:49;;;;;;;24.30;23.07;;;20.30;90.30;;;;;;5053212;28;20536;-64
2023/05/13 04:41:16;;;;;;;25.10;23.90;;;20.40;91.30;;;;;;5053036;28;20449;-64
2023/05/13 04:43:42;;;;;;;25.70;24.50;;;20.60;90.70;;;;;;5053041;28;20483;-62
2023/05/13 04:46:09;;;;;;;27.10;25.90;;;20.70;90.60;;;;;;5052834;28;20480;-61
2023/05/13 04:48:38;;;;;;;27.57;26.27;;;20.70;90.50;;;;;;5052650;28;20502;-63
2023/05/13 04:51:04;;;;;;;25.87;24.67;;;20.70;90.20;;;;;;5059671;28;20448;-64
2023/05/13 04:53:31;;;;;;;25.17;23.97;;;20.70;89.90;;;;;;5055185;28;20512;-61
2023/05/13 04:55:59;;;;;;;27.00;25.70;;;20.70;89.80;;;;;;5052680;28;20494;-62
2023/05/13 04:58:26;;;;;;;26.07;24.97;;;20.80;89.60;;;;;;5052378;28;20475;-63
2023/05/13 05:00:53;;;;;;;24.80;23.80;;;20.70;89.50;;;;;;5052507;28;20494;-62
2023/05/13 05:03:20;;;;;;;25.47;24.27;;;20.80;90.20;;;;;;5052229;28;20501;-63
2023/05/13 05:05:49;;;;;;;25.47;24.30;;;20.80;90.30;;;;;;5052482;28;20450;-62
2023/05/13 05:08:16;;;;;;;24.20;23.03;;;20.80;90.30;;;;;;5052842;28;20495;-61
2023/05/13 05:10:43;;;;;;;25.63;24.23;;;20.80;90.30;;;;;;5052396;28;20479;-62
2023/05/13 05:13:10;;;;;;;25.60;24.20;;;20.90;91.20;;;;;;5051338;28;20484;-63
2023/05/13 05:15:37;;;;;;;25.20;23.80;;;20.90;90.70;;;;;;5052289;28;20444;-64
2023/05/13 05:18:05;;;;;;;26.57;25.23;;;21.00;90.40;;;;;;5052137;28;20539;-62
2023/05/13 05:20:32;;;;;;;25.20;24.13;;;21.10;90.00;;;;;;5052168;28;20483;-61
2023/05/13 05:23:00;;;;;;;25.00;23.70;;;21.20;90.00;;;;;;5052029;28;20439;-58
2023/05/13 05:25:28;;;;;;;24.80;23.60;;;21.20;89.80;;;;;;5051997;28;20872;-56
2023/05/13 05:27:55;;;;;;;26.47;25.27;;;21.10;89.30;;;;;;5051875;28;20448;-58
2023/05/13 05:30:22;;;;;;;24.73;23.50;;;21.10;88.90;;;;;;5051874;28;20456;-54
2023/05/13 05:32:49;;;;;;;24.50;23.27;;;21.20;88.90;;;;;;5051770;28;21062;-54
2023/05/13 05:35:18;;;;;;;23.80;22.73;;;21.10;88.80;;;;;;5051800;28;20482;-58
2023/05/13 05:37:45;;;;;;;23.77;22.87;;;21.20;90.20;;;;;;5052075;28;20455;-60
2023/05/13 05:40:14;;;;;;;25.33;24.03;;;21.30;90.60;;;;;;5051731;28;20472;-57
2023/05/13 05:42:41;;;;;;;24.10;23.03;;;21.40;90.50;;;;;;5051683;28;20451;-58
2023/05/13 05:45:09;;;;;;;24.83;23.63;;;21.50;90.40;;;;;;5051967;28;20498;-58
2023/05/13 05:47:35;;;;;;;24.97;23.77;;;21.50;90.30;;;;;;5051631;28;20949;-57
2023/05/13 05:50:03;;;;;;;24.40;23.40;;;21.50;90.30;;;;;;5051736;28;20985;-59
2023/05/13 05:52:29;;;;;;;24.50;23.50;;;21.50;90.60;;;;;;5051366;28;20564;-54
2023/05/13 05:54:56;;;;;;;25.70;24.50;;;21.60;90.50;;;;;;5051601;28;20479;-56
2023/05/13 05:57:25;;;;;;;25.23;24.03;;;21.60;90.30;;;;;;5051649;28;20503;-55
2023/05/13 05:59:51;;;;;;;24.67;23.70;;;21.50;89.60;;;;;;5051566;28;20496;-57
2023/05/13 06:02:18;;;;;;;25.60;24.50;;;21.50;89.60;;;;;;5051522;28;20483;-57
2023/05/13 06:04:45;;;;;;;25.90;24.80;;;21.50;90.20;;;;;;5051268;28;20479;-57
2023/05/13 06:07:12;;;;;;;24.83;23.83;;;21.50;90.50;;;;;;5051579;28;20479;-54
2023/05/13 06:09:39;;;;;;;26.10;25.00;;;21.50;90.80;;;;;;5051383;28;20504;-56
2023/05/13 06:12:07;;;;;;;25.67;24.67;;;21.50;92.80;;;;;;5051439;28;20829;-55
2023/05/13 06:14:35;;;;;;;23.97;22.97;;;21.50;92.70;;;;;;5051294;28;20456;-55
2023/05/13 06:17:02;;;;;;;26.53;24.40;;;21.60;91.80;;;;;;5051408;28;20475;-58
2023/05/13 06:19:29;;;;;;;26.00;24.57;;;21.70;93.60;;;;;;5048891;28;20507;-58
2023/05/13 06:21:56;;;;;;;25.97;24.47;;;21.80;95.30;;;;;;5050870;28;20483;-58
2023/05/13 06:24:23;;;;;;;24.80;23.50;;;21.90;95.70;;;;;;5054385;28;20486;-61
2023/05/13 06:26:49;;;;;;;25.67;24.30;;;21.80;95.30;;;;;;5055555;28;20479;-61
2023/05/13 06:29:16;;;;;;;24.67;23.60;;;21.80;95.10;;;;;;5055117;28;20554;-63
2023/05/13 06:31:45;;;;;;;25.17;24.07;;;21.80;95.90;;;;;;5055156;28;20545;-61
2023/05/13 06:34:15;;;;;;;25.50;24.37;;;21.80;96.90;;;;;;5055168;28;20562;-62
2023/05/13 06:36:42;;;;;;;26.73;25.27;;;21.80;96.40;;;;;;5055319;28;20443;-61
2023/05/13 06:39:10;;;;;;;25.50;24.30;;;21.80;97.60;;;;;;5055153;28;20464;-63
2023/05/13 06:41:37;;;;;;;26.47;25.17;;;21.90;96.70;;;;;;5047893;28;20462;-63
2023/05/13 06:44:05;;;;;;;26.70;25.50;;;21.90;97.30;;;;;;5055658;28;20439;-61
2023/05/13 06:46:32;;;;;;;25.00;24.00;;;22.00;96.80;;;;;;5057400;28;20509;-58
2023/05/13 06:49:00;;;;;;;25.83;24.63;;;22.00;95.90;;;;;;5057740;28;20495;-58
2023/05/13 06:51:27;;;;;;;25.73;24.50;;;22.00;94.50;;;;;;5054566;28;20527;-58
2023/05/13 06:53:55;;;;;;;26.33;25.13;;;22.00;95.00;;;;;;5054604;28;20520;-59
2023/05/13 06:56:22;;;;;;;23.90;23.00;;;22.10;94.60;;;;;;5054867;28;20443;-59
2023/05/13 06:58:49;;;;;;;24.87;23.63;;;22.10;94.90;;;;;;5055008;28;20468;-59
2023/05/13 07:01:16;;;;;;;23.23;22.13;;;22.10;95.10;;;;;;5054361;28;20825;-57
2023/05/13 07:03:43;;;;;;;22.30;21.40;;;22.10;94.90;;;;;;5054610;28;20444;-60
2023/05/13 07:06:12;;;;;;;22.03;21.10;;;22.10;94.10;;;;;;5054554;28;20483;-58
2023/05/13 07:08:39;;;;;;;22.33;21.40;;;22.10;94.40;;;;;;5054370;28;20507;-60
2023/05/13 07:11:06;;;;;;;23.13;21.87;;;22.00;94.20;;;;;;5054368;28;20448;-56
2023/05/13 07:13:33;;;;;;;23.70;22.27;;;22.00;93.10;;;;;;5054218;28;20910;-60
2023/05/13 07:16:01;;;;;;;24.70;22.70;;;22.00;93.20;;;;;;5054442;28;20480;-60
2023/05/13 07:18:28;;;;;;;26.37;24.20;;;22.10;94.40;;;;;;5054075;28;20498;-60
2023/05/13 07:20:55;;;;;;;25.13;23.77;;;22.10;95.50;;;;;;5054174;28;20869;-60
2023/05/13 07:23:24;;;;;;;25.83;23.67;;;22.20;97.00;;;;;;5054203;28;20440;-59
2023/05/13 07:25:51;;;;;;;27.07;25.17;;;22.20;99.90;;;;;;5054478;28;20862;-62
2023/05/13 07:28:18;;;;;;;29.57;27.07;;;22.20;99.90;;;;;;5053846;28;20463;-60
2023/05/13 07:30:45;;;;;;;27.13;24.60;;;22.20;99.90;;;;;;5054106;28;20448;-59
2023/05/13 07:33:12;;;;;;;27.83;25.63;;;22.20;99.90;;;;;;5054132;28;20571;-60
2023/05/13 07:35:39;;;;;;;27.27;25.30;;;22.20;99.90;;;;;;5053406;28;20483;-59
2023/05/13 07:38:09;;;;;;;25.10;23.10;;;22.30;99.90;;;;;;5053845;28;20973;-58
2023/05/13 07:40:37;;;;;;;25.23;23.20;;;22.30;99.90;;;;;;5054082;28;20972;-55
2023/05/13 07:43:04;;;;;;;26.40;24.27;;;22.30;99.90;;;;;;5053880;28;20471;-55
2023/05/13 07:45:32;;;;;;;25.67;23.87;;;22.20;99.90;;;;;;5054002;28;20503;-57
2023/05/13 07:47:58;;;;;;;26.27;24.07;;;22.20;99.90;;;;;;5053893;28;20484;-57
2023/05/13 07:50:25;;;;;;;24.27;22.67;;;22.10;99.90;;;;;;5053777;28;20480;-58
2023/05/13 07:52:52;;;;;;;24.53;22.60;;;22.00;99.90;;;;;;5053784;28;20762;-56
2023/05/13 07:55:20;;;;;;;22.97;21.53;;;22.00;99.60;;;;;;5053810;28;20502;-53
2023/05/13 07:57:48;;;;;;;25.37;23.53;;;22.00;98.80;;;;;;5053789;28;20521;-57
2023/05/13 08:00:16;;;;;;;24.43;22.70;;;22.00;98.50;;;;;;5053778;28;20894;-58
2023/05/13 08:02:43;;;;;;;24.90;23.23;;;22.00;97.80;;;;;;5053594;28;20491;-55
2023/05/13 08:05:11;;;;;;;23.10;22.10;;;21.90;97.40;;;;;;5053599;28;20510;-54
2023/05/13 08:07:38;;;;;;;24.63;23.10;;;21.90;96.90;;;;;;5053663;28;20451;-57
2023/05/13 08:10:06;;;;;;;23.57;22.43;;;21.90;96.60;;;;;;5053579;28;20883;-57
2023/05/13 08:12:33;;;;;;;22.30;21.20;;;21.90;96.50;;;;;;5053297;28;20475;-58
2023/05/13 08:15:03;;;;;;;23.90;22.70;;;21.90;96.30;;;;;;5053543;28;20477;-57
2023/05/13 08:17:30;;;;;;;24.10;22.60;;;21.90;95.80;;;;;;5052942;28;20444;-56
2023/05/13 08:19:57;;;;;;;24.03;22.60;;;21.80;95.60;;;;;;5053020;28;20567;-58
2023/05/13 08:22:24;;;;;;;21.27;20.27;;;21.80;95.80;;;;;;5054074;28;20445;-60
2023/05/13 08:24:51;;;;;;;23.70;22.40;;;21.90;97.70;;;;;;5054555;28;20887;-60
2023/05/13 08:27:18;;;;;;;23.87;22.57;;;21.90;99.90;;;;;;5054687;28;20487;-61
2023/05/13 08:29:45;;;;;;;22.80;21.10;;;22.00;99.90;;;;;;5054714;28;20519;-61
2023/05/13 08:32:13;;;;;;;23.93;22.43;;;21.90;99.90;;;;;;5055520;28;20483;-60
2023/05/13 08:34:40;;;;;;;22.87;21.63;;;21.90;99.90;;;;;;5054430;28;20523;-61
2023/05/13 08:37:07;;;;;;;25.50;24.10;;;21.90;99.90;;;;;;5054624;28;20472;-60
2023/05/13 08:39:34;;;;;;;22.43;20.97;;;22.00;99.90;;;;;;5054133;28;20503;-61
2023/05/13 08:42:03;;;;;;;23.43;21.93;;;22.00;99.90;;;;;;5054972;28;20445;-60
2023/05/13 08:44:32;;;;;;;23.00;21.73;;;22.00;99.90;;;;;;5054461;28;20480;-61
2023/05/13 08:47:08;;;;;;;22.30;21.07;;;22.10;99.90;;;;;;5052749;28;20887;-60
2023/05/13 08:49:37;;;;;;;23.40;22.10;;;22.00;99.90;;;;;;5053403;28;20510;-61
2023/05/13 08:52:05;;;;;;;22.80;21.40;;;22.10;99.70;;;;;;5061140;28;20482;-61
2023/05/13 08:54:33;;;;;;;23.53;21.83;;;22.10;99.80;;;;;;5058169;28;20894;-61
2023/05/13 08:57:00;;;;;;;22.07;20.97;;;22.10;99.40;;;;;;5054446;28;20981;-59
2023/05/13 08:59:27;;;;;;;21.93;20.87;;;22.10;99.10;;;;;;5054235;28;20574;-60
2023/05/13 09:01:55;;;;;;;21.73;20.77;;;22.10;98.40;;;;;;5053873;28;20476;-60
2023/05/13 09:04:22;;;;;;;21.43;20.50;;;22.10;96.20;;;;;;5053934;28;20503;-60
2023/05/13 09:06:51;;;;;;;22.40;21.20;;;22.10;96.30;;;;;;5054126;28;20491;-59
2023/05/13 09:09:18;;;;;;;22.67;21.57;;;22.10;95.50;;;;;;5053761;28;20547;-60
2023/05/13 09:11:47;;;;;;;22.87;21.47;;;22.10;93.90;;;;;;5052972;28;20444;-59
2023/05/13 09:14:18;;;;;;;21.87;20.57;;;22.10;92.50;;;;;;5053364;28;21008;-59
2023/05/13 09:16:45;;;;;;;22.50;21.60;;;22.10;93.70;;;;;;5052128;28;21021;-60
2023/05/13 09:19:12;;;;;;;21.80;20.80;;;22.10;93.30;;;;;;5051634;28;20508;-60
2023/05/13 09:21:39;;;;;;;22.60;21.60;;;22.00;92.10;;;;;;5050858;28;20823;-59
2023/05/13 09:24:09;;;;;;;22.07;20.97;;;21.90;90.10;;;;;;5052812;28;20875;-59
2023/05/13 09:26:37;;;;;;;20.45;19.35;;;21.90;89.70;;;;;;5052271;28;20825;-59
2023/05/13 09:29:18;;;;;;;22.53;21.63;;;21.90;85.40;;;;;;5052527;28;20233;-59
2023/05/13 09:31:47;;;;;;;22.43;21.40;;;21.90;85.10;;;;;;5052738;28;20494;-61
2023/05/13 09:34:14;;;;;;;23.20;22.20;;;21.90;80.60;;;;;;5052557;28;20591;-60
2023/05/13 09:36:41;;;;;;;22.80;21.63;;;21.90;81.60;;;;;;5052454;28;20969;-59
2023/05/13 09:39:12;;;;;;;23.03;22.03;;;21.90;82.60;;;;;;5052204;28;20468;-58
2023/05/13 09:41:39;;;;;;;23.87;22.77;;;21.90;82.10;;;;;;5052039;28;20814;-58
2023/05/13 09:44:08;;;;;;;23.43;22.37;;;21.80;81.30;;;;;;5052134;28;20487;-59
2023/05/13 09:46:34;;;;;;;22.60;21.60;;;21.90;79.40;;;;;;5052207;28;20460;-58
2023/05/13 09:49:03;;;;;;;23.30;22.30;;;21.80;78.90;;;;;;5051512;28;20495;-59
2023/05/13 09:51:31;;;;;;;21.53;20.57;;;21.80;81.10;;;;;;5051751;28;20894;-58
2023/05/13 09:54:03;;;;;;;21.70;20.80;;;21.90;81.80;;;;;;5051285;28;20571;-60
2023/05/13 09:56:34;;;;;;;21.73;20.83;;;21.90;81.50;;;;;;5051490;28;20452;-57
2023/05/13 09:59:01;;;;;;;23.20;22.20;;;21.80;81.00;;;;;;5051408;28;21012;-56
2023/05/13 10:01:29;;;;;;;22.10;21.10;;;21.80;80.90;;;;;;5051802;28;20452;-55
2023/05/13 10:03:58;;;;;;;22.47;21.57;;;21.80;81.90;;;;;;5051115;28;20479;-58
2023/05/13 10:06:26;;;;;;;23.17;22.17;;;21.80;81.80;;;;;;5049668;28;20452;-59
2023/05/13 10:08:57;;;;;;;21.93;21.13;;;21.80;82.40;;;;;;5051509;28;20562;-57
2023/05/13 10:11:25;;;;;;;21.80;20.90;;;21.80;82.40;;;;;;5051586;28;20483;-58
2023/05/13 10:13:59;;;;;;;22.07;21.17;;;21.70;82.40;;;;;;5051366;28;20488;-57
2023/05/13 10:16:27;;;;;;;21.70;20.70;;;21.70;82.20;;;;;;5051598;28;20981;-59
2023/05/13 10:18:56;;;;;;;21.73;20.73;;;21.70;82.60;;;;;;5051934;28;20479;-58
2023/05/13 10:21:23;;;;;;;22.23;21.23;;;21.70;82.40;;;;;;5051459;28;20487;-58
2023/05/13 10:23:51;;;;;;;21.87;21.00;;;21.70;83.00;;;;;;5051400;28;21020;-58
2023/05/13 10:26:20;;;;;;;22.00;21.20;;;21.60;82.70;;;;;;5051499;28;20920;-58
2023/05/13 10:28:48;;;;;;;22.10;21.20;;;21.60;82.40;;;;;;5051763;28;20499;-58
2023/05/13 10:31:17;;;;;;;21.77;20.87;;;21.60;82.90;;;;;;5051648;28;20444;-59
2023/05/13 10:33:44;;;;;;;21.30;20.50;;;21.60;83.90;;;;;;5051601;28;21016;-59
2023/05/13 10:36:25;;;;;;;20.97;20.17;;;21.60;84.60;;;;;;5051664;28;20449;-58
2023/05/13 10:39:13;;;;;;;21.00;20.10;;;21.60;84.90;;;;;;5051728;28;20467;-55
2023/05/13 10:42:24;;;;;;;21.00;20.20;;;21.60;85.20;;;;;;5055710;28;20476;-58
2023/05/13 10:44:54;;;;;;;21.70;20.80;;;21.60;85.40;;;;;;4970929;28;20517;-58
2023/05/13 10:47:22;;;;;;;21.10;20.30;;;21.60;86.90;;;;;;5038096;28;21028;-58
2023/05/13 10:49:52;;;;;;;20.60;19.70;;;21.60;86.80;;;;;;5051660;28;20495;-59
2023/05/13 10:52:19;;;;;;;21.30;20.40;;;21.60;86.50;;;;;;5051494;28;20455;-59
2023/05/13 10:55:01;;;;;;;21.03;20.23;;;21.60;86.70;;;;;;5051221;28;20822;-55
2023/05/13 10:57:29;;;;;;;20.87;19.97;;;21.50;86.40;;;;;;5051271;28;21040;-58
2023/05/13 11:00:15;;;;;;;21.00;20.30;;;21.50;86.60;;;;;;5051120;28;20468;-58
2023/05/13 11:02:43;;;;;;;21.53;20.70;;;21.50;86.50;;;;;;5051004;28;20448;-59
2023/05/13 11:05:18;;;;;;;22.53;21.43;;;21.60;86.90;;;;;;5051113;28;20948;-59
2023/05/13 11:07:55;;;;;;;21.40;20.60;;;21.60;87.10;;;;;;5051393;28;20495;-59
2023/05/13 11:10:26;;;;;;;21.27;20.50;;;21.60;87.30;;;;;;5052828;28;20480;-58
2023/05/13 11:13:23;;;;;;;21.50;20.70;;;21.60;87.30;;;;;;5054673;28;20546;-58
2023/05/13 11:15:51;;;;;;;20.80;20.00;;;21.60;86.70;;;;;;5054687;28;20484;-59
2023/05/13 11:18:20;;;;;;;20.60;19.90;;;21.50;86.80;;;;;;5054552;28;20530;-59
2023/05/13 11:20:52;;;;;;;20.93;20.20;;;21.60;86.90;;;;;;5054925;28;20471;-57
2023/05/13 11:23:19;;;;;;;22.03;20.93;;;21.60;87.00;;;;;;5054465;28;20978;-58
2023/05/13 11:25:47;;;;;;;21.47;20.67;;;21.60;87.00;;;;;;5054487;28;20448;-56
2023/05/13 11:28:17;;;;;;;21.10;20.20;;;21.60;87.10;;;;;;5054497;28;20795;-58
2023/05/13 11:30:54;;;;;;;21.60;20.70;;;21.60;87.20;;;;;;5054548;28;21008;-55
2023/05/13 11:33:22;;;;;;;22.20;21.40;;;21.60;87.40;;;;;;5054186;28;20803;-59
2023/05/13 11:35:56;;;;;;;21.40;20.50;;;21.60;87.20;;;;;;5054143;28;20480;-60
2023/05/13 11:38:24;;;;;;;22.40;21.40;;;21.60;87.20;;;;;;5054215;28;20470;-59
2023/05/13 11:40:52;;;;;;;22.03;21.03;;;21.60;87.10;;;;;;5054362;28;20452;-57
2023/05/13 11:43:23;;;;;;;21.10;20.30;;;21.60;87.20;;;;;;5054107;28;20471;-58
2023/05/13 11:45:52;;;;;;;21.10;20.23;;;21.60;87.20;;;;;;5054161;28;20871;-59
2023/05/13 11:48:20;;;;;;;21.23;20.43;;;21.60;86.90;;;;;;5054031;28;20617;-59
2023/05/13 11:50:50;;;;;;;21.53;20.73;;;21.60;86.50;;;;;;5054212;28;20794;-58
2023/05/13 11:53:21;;;;;;;21.33;20.53;;;21.60;86.90;;;;;;5054114;28;20445;-59
2023/05/13 11:55:48;;;;;;;20.57;19.87;;;21.60;86.90;;;;;;5054065;28;20997;-58
2023/05/13 11:58:15;;;;;;;20.70;19.90;;;21.60;86.60;;;;;;5053860;28;20479;-59
2023/05/13 12:00:42;;;;;;;19.47;18.77;;;21.60;86.50;;;;;;5053935;28;20480;-60
2023/05/13 12:03:12;;;;;;;20.23;19.53;;;21.60;86.90;;;;;;5053625;28;20451;-59
2023/05/13 12:05:38;;;;;;;20.67;19.87;;;21.60;87.20;;;;;;5053871;28;20486;-60
2023/05/13 12:08:09;;;;;;;21.00;20.20;;;21.60;87.20;;;;;;5053967;28;20480;-57
2023/05/13 12:10:42;;;;;;;20.20;19.40;;;21.60;87.70;;;;;;5053921;28;20441;-59
2023/05/13 12:13:09;;;;;;;20.60;19.87;;;21.60;87.80;;;;;;5053689;28;20487;-59
2023/05/13 12:15:36;;;;;;;20.67;19.87;;;21.70;88.00;;;;;;5053536;28;20515;-59
2023/05/13 12:18:04;;;;;;;20.20;19.47;;;21.60;87.50;;;;;;5053491;28;20480;-59
2023/05/13 12:20:31;;;;;;;21.20;20.43;;;21.70;87.80;;;;;;5053364;28;20523;-60
2023/05/13 12:23:00;;;;;;;21.27;20.40;;;21.70;87.60;;;;;;5053200;28;20941;-58
2023/05/13 12:25:50;;;;;;;20.93;20.13;;;21.60;87.50;;;;;;5053530;28;20448;-58
2023/05/13 12:28:18;;;;;;;20.50;19.70;;;21.70;88.10;;;;;;5049341;28;20571;-58
2023/05/13 12:30:50;;;;;;;21.07;20.27;;;21.70;87.40;;;;;;5053246;28;20444;-57
2023/05/13 12:33:19;;;;;;;20.50;19.80;;;21.70;87.30;;;;;;5052919;28;20441;-56